Flight Track Log - Related Links

Times and Time Zones

All times are in EDT time to prevent confusion due to time zone crossing. See the DAL6225 flight status page for this flight to view local times or setup timezone preferences in your user account.

Time Position Orientation Groundspeed Altitude Reporting Facility
EDT Latitude Longitude Course Direction KTS MPH feet Rate Location/Type
Sun 09:47:48 AM 43.1825 -89.3172 90° East 173 199 3,000  Level Chicago Center
Sun 09:48:50 AM 43.1894 -89.2481 82° East 187 215 5,200 2,049 Climbing Chicago Center
Sun 09:49:51 AM 43.1833 -89.1594 95° East 215 247 7,200 2,195 Climbing Chicago Center
Sun 09:50:53 AM 43.1761 -89.0500 95° East 276 318 9,700 2,244 Climbing Chicago Center
Sun 09:51:54 AM 43.1681 -88.9361 96° East 295 339 11,800 2,146 Climbing Chicago Center
Sun 09:52:56 AM 43.1578 -88.8122 96° East 324 373 14,100 2,390 Climbing Chicago Center
Sun 09:53:00 AM 43.1167 -88.4386 90° East  Level FlightAware Approximate
Sun 09:53:57 AM 43.1461 -88.6656 96° East 333 383 16,700  Level Chicago Center
Sun 09:54:59 AM 43.1347 -88.5339 97° East 347 399 18,600 1,839 Climbing Chicago Center
Sun 09:56:01 AM 43.1242 -88.3981 96° East 359 413 20,500 1,756 Climbing Chicago Center
Sun 09:57:02 AM 43.1161 -88.2589 94° East 368 423 22,200 1,659 Climbing Chicago Center
Sun 09:58:04 AM 43.1247 -88.1175 85° East 375 432 23,900 1,366 Climbing Chicago Center
Sun 09:59:05 AM 43.1297 -87.9742 87° East 379 436 25,000 537 Climbing Chicago Center
Sun 10:00:07 AM 43.1383 -87.7878 86° East 416 479 25,000 194 Level Chicago Center
Sun 10:01:09 AM 43.1461 -87.6169 86° East 445 512 25,400 927 Climbing Chicago Center
Sun 10:02:10 AM 43.1547 -87.4464 86° East 450 518 26,900 1,574 Climbing Chicago Center
Sun 10:03:11 AM 43.1633 -87.2689 86° East 441 507 28,600 1,415 Climbing Chicago Center
Sun 10:04:13 AM 43.1706 -87.1056 86° East 432 497 29,800 1,065 Climbing Chicago Center
Sun 10:05:15 AM 43.1761 -86.9422 87° East 431 496 30,800 976 Climbing Chicago Center
Sun 10:06:16 AM 43.1811 -86.7778 88° East 432 497 31,800 976 Climbing Chicago Center
Sun 10:07:18 AM 43.1872 -86.6136 87° East 432 497 32,800 780 Climbing Chicago Center
Sun 10:08:19 AM 43.1931 -86.4489 87° East 433 498 33,400 732 Climbing Chicago Center
Sun 10:09:21 AM 43.1981 -86.2806 88° East 439 505 34,300 927 Climbing Chicago Center
Sun 10:10:22 AM 43.2042 -86.1133 87° East 436 502 35,300 780 Climbing Chicago Center
Sun 10:11:24 AM 43.2089 -85.9456 88° East 433 498 35,900 677 Climbing Chicago Center
Sun 10:12:26 AM 43.2136 -85.7778 88° East 434 499 36,700 537 Climbing Chicago Center
Sun 10:13:27 AM 43.2178 -85.6131 88° East 431 496 37,000 146 Climbing Chicago Center
Sun 10:14:29 AM 43.2225 -85.4122 88° East 437 503 37,000  Level Chicago Center
Sun 10:15:21 AM 43.2256 -85.2792 88° East 451 519 37,000  Level Cleveland Center
Sun 10:16:21 AM 43.2283 -85.1056 89° East 451 519 37,000  Level Cleveland Center
Sun 10:17:21 AM 43.2306 -84.9375 89° East 446 513 37,000  Level Cleveland Center
Sun 10:18:21 AM 43.2350 -84.7639 88° East 441 507 37,000  Level Cleveland Center
Sun 10:19:21 AM 43.2367 -84.5958 89° East 441 507 37,000  Level Cleveland Center
Sun 10:20:21 AM 43.2381 -84.4278 89° East 441 507 37,000  Level Cleveland Center
Sun 10:21:21 AM 43.2417 -84.2542 88° East 441 507 37,000  Level Cleveland Center
Sun 10:22:21 AM 43.2433 -84.0689 89° East 441 507 37,000  Level Cleveland Center
Sun 10:23:22 AM 43.2478 -83.9181 88° East 441 507 37,000  Level Cleveland Center
Sun 10:24:22 AM 43.2486 -83.7442 90° East 441 507 37,000  Level Cleveland Center
Sun 10:25:22 AM 43.2511 -83.5703 89° East 441 507 37,000  Level Cleveland Center
Sun 10:26:21 AM 43.2514 -83.3936 90° East 447 514 37,000  Level Cleveland Center
Sun 10:27:21 AM 43.2533 -83.2228 89° East 452 520 37,000  Level Cleveland Center
Sun 10:28:22 AM 43.2531 -83.0431 90° East 463 533 37,000  Level Cleveland Center
Sun 10:29:21 AM 43.2567 -82.8608 88° East 463 533 37,000  Level Cleveland Center
Sun 10:30:21 AM 43.2539 -82.6839 91° East 463 533 37,000  Level Cleveland Center
Sun 10:31:21 AM 43.2425 -82.5039 95° East 463 533 37,000  Level Cleveland Center
Sun 10:32:17 AM 43.2167 -82.3167 101° East 470 541 37,000  Level Toronto Center
Sun 10:33:17 AM 43.2000 -82.1333 97° East 480 552 37,000  Level Toronto Center
Sun 10:34:17 AM 43.1833 -81.9500 97° East 470 541 37,000  Level Toronto Center
Sun 10:35:17 AM 43.1833 -81.7667 90° East 470 541 37,000  Level Toronto Center
Sun 10:36:17 AM 43.1667 -81.6000 98° East 480 552 37,000  Level Toronto Center
Sun 10:37:17 AM 43.1500 -81.4167 97° East 480 552 37,000  Level Toronto Center
Sun 10:38:17 AM 43.1333 -81.2167 96° East 480 552 37,000  Level Toronto Center
Sun 10:39:17 AM 43.1167 -81.0500 98° East 480 552 37,000  Level Toronto Center
Sun 10:40:17 AM 43.1000 -80.8500 96° East 480 552 37,000  Level Toronto Center
Sun 10:41:17 AM 43.1000 -80.6833 90° East 480 552 37,000  Level Toronto Center
Sun 10:42:17 AM 43.0833 -80.5000 97° East 490 564 37,000  Level Toronto Center
Sun 10:43:17 AM 43.0667 -80.3000 96° East 490 564 37,000  Level Toronto Center
Sun 10:44:17 AM 43.0500 -80.1333 98° East 490 564 37,000  Level Toronto Center
Sun 10:45:17 AM 43.0333 -79.9333 96° East 500 575 37,000  Level Toronto Center
Sun 10:46:17 AM 43.0167 -79.7500 97° East 500 575 37,000  Level Toronto Center
Sun 10:47:17 AM 43.0000 -79.5500 96° East 500 575 37,000  Level Toronto Center
Sun 10:48:17 AM 42.9833 -79.3667 97° East 500 575 37,000  Level Toronto Center
Sun 10:49:17 AM 42.9667 -79.1833 97° East 500 575 37,000  Level Toronto Center
Sun 10:50:17 AM 42.9500 -79.0000 97° East 500 575 37,000  Level Toronto Center
Sun 10:51:17 AM 42.9333 -78.7833 96° East 500 575 37,000  Level Toronto Center
Sun 10:51:33 AM 42.9444 -78.7850 354° North 500 575 37,000  Level Cleveland Center
Sun 10:52:33 AM 42.9244 -78.5956 98° East 500 575 37,000  Level Cleveland Center
Sun 10:53:33 AM 42.9067 -78.4092 97° East 509 586 37,000  Level Cleveland Center
Sun 10:54:33 AM 42.8864 -78.2200 98° East 504 580 37,000  Level Cleveland Center
Sun 10:55:33 AM 42.8656 -78.0308 98° East 504 580 37,000 -200 Level Cleveland Center
Sun 10:56:33 AM 42.8467 -77.8447 98° East 504 580 36,600 -700 Descending Cleveland Center
Sun 10:57:33 AM 42.8253 -77.6531 99° East 504 580 35,600 -585 Descending Cleveland Center
Sun 10:59:17 AM 42.7667 -77.3000 103° East 510 587 35,000 -293 Descending Toronto Center
Sun 10:59:36 AM 42.7692 -77.2661 84° East 495 570 35,000  Level Boston Center
Sun 11:00:36 AM 42.7414 -77.0772 101° East 500 575 35,000  Level Boston Center
Sun 11:01:36 AM 42.7156 -76.8889 101° East 500 575 35,000  Level Boston Center
Sun 11:02:36 AM 42.6875 -76.7003 101° East 506 582 35,000 -200 Level Boston Center
Sun 11:03:36 AM 42.6611 -76.5092 101° East 511 588 34,600 -700 Descending Boston Center
Sun 11:04:36 AM 42.6342 -76.3211 101° East 511 588 33,600 -1,050 Descending Boston Center
Sun 11:05:36 AM 42.6014 -76.1186 102° East 506 582 32,500 -1,050 Descending Boston Center
Sun 11:06:36 AM 42.5739 -75.9364 102° East 501 577 31,500 -1,000 Descending Boston Center
Sun 11:07:36 AM 42.5439 -75.7517 102° East 496 571 30,500 -1,000 Descending Boston Center
Sun 11:08:36 AM 42.5158 -75.5642 101° East 496 571 29,500 -1,000 Descending Boston Center
Sun 11:09:36 AM 42.4875 -75.3769 102° East 496 571 28,500 -1,000 Descending Boston Center
Sun 11:10:36 AM 42.4542 -75.2036 105° East 491 565 27,500 -1,200 Descending Boston Center
Sun 11:11:36 AM 42.3933 -75.0461 118° Southeast 475 547 26,100 -1,700 Descending Boston Center
Sun 11:12:36 AM 42.3386 -74.8894 115° Southeast 470 541 24,100 -1,800 Descending Boston Center
Sun 11:13:36 AM 42.2811 -74.7439 118° Southeast 450 518 22,500 -1,650 Descending Boston Center
Sun 11:14:36 AM 42.2278 -74.5964 116° Southeast 438 504 20,800 -1,650 Descending Boston Center
Sun 11:15:36 AM 42.1761 -74.4572 117° Southeast 432 497 19,200 -1,300 Descending Boston Center
Sun 11:16:36 AM 42.1303 -74.3353 117° Southeast 419 482 18,200 -600 Descending Boston Center
Sun 11:17:36 AM 42.0681 -74.1908 120° Southeast 405 466 18,000 -100 Descending Boston Center
Sun 11:18:36 AM 42.0053 -74.0661 124° Southeast 405 466 18,000  Level Boston Center
Sun 11:19:36 AM 41.9419 -73.9667 131° Southeast 405 466 18,000  Level Boston Center
Sun 11:20:36 AM 41.8239 -73.9250 165° South 390 449 18,000 -750 Level Boston Center
Sun 11:21:36 AM 41.7242 -73.8975 168° South 395 455 16,500 -2,000 Descending Boston Center
Sun 11:22:36 AM 41.6097 -73.8700 170° South 387 445 14,000 -2,376 Descending Boston Center
Sun 11:24:05 AM 41.4667 -73.8333 169° South 341 392 10,600 -1,812 Descending New York TRACON
Sun 11:25:05 AM 41.3833 -73.8167 171° South 292 336 9,500 -1,000 Descending New York TRACON
Sun 11:26:05 AM 41.3167 -73.7667 151° Southeast 285 328 8,600 -700 Descending New York TRACON
Sun 11:27:05 AM 41.2500 -73.7167 151° Southeast 286 329 8,100 -350 Descending New York TRACON
Sun 11:28:05 AM 41.1833 -73.6500 143° Southeast 290 334 7,900 -600 Descending New York TRACON
Sun 11:29:05 AM 41.1167 -73.6167 159° South 286 329 6,900 -1,000 Descending New York TRACON
Sun 11:30:05 AM 41.0500 -73.6500 201° Southwest 269 310 5,900 -1,050 Descending New York TRACON
Sun 11:31:05 AM 40.9833 -73.7000 210° Southwest 263 303 4,800 -1,300 Descending New York TRACON
Sun 11:32:05 AM 40.9333 -73.7500 217° Southwest 249 287 3,300 -1,300 Descending New York TRACON
Sun 11:33:05 AM 40.8667 -73.8000 210° Southwest 229 264 2,200 -1,050 Descending New York TRACON
Sun 11:34:05 AM 40.8333 -73.8333 217° Southwest 157 181 1,200 -700 Descending New York TRACON
Sun 11:35:05 AM 40.8000 -73.8833 229° Southwest 143 165 800 -450 Descending New York TRACON
Sun 11:36:05 AM 40.7833 -73.9000 217° Southwest 146 168 300 -500 Descending New York TRACON
Sun 11:38:00 AM 40.7772 -73.8726 180° South  Level Estimated
Sun 11:45:00 AM 40.7772 -73.8726 180° South  Level Estimated
Sun 11:46:00 AM 40.7772 -73.8726 180° South  Level Estimated
Sun 11:47:00 AM 40.7772 -73.8726 180° South  Level Estimated

Login

Don't have an account? Register now (free) for customized features, flight alerts, and more!